AXB1472 VOBL-VOMM
Flight info
| Callsign | AXB1472 |
|---|---|
| Flight time | 0h 30m |
| Altitude | 19000 |
| Route | BIA W116 MMV |
| Aircraft | B38M/M-SDE1FGHILORVWXY/HB1 |
Departure
| Time | 2026-04-24 10:19 |
|---|---|
| Airport | Kempegowda International Airport Bengaluru (VOBL) |
Arrival
| Time | 2026-04-24 10:50 |
|---|---|
| Airport | Chennai International Airport (VOMM) |
| Time | Latitude | Longitude | Altitude | Speed | Heading |
|---|---|---|---|---|---|
| 2026-04-24 10:03 | 13.20363 | 77.69666 | 3014 ft | 0 kts | 0° |
| 2026-04-24 10:10 | 13.20357 | 77.69666 | 3019 ft | 3 kts | 359° |
| 2026-04-24 10:10 | 13.20337 | 77.69666 | 3019 ft | 3 kts | 360° |
| 2026-04-24 10:10 | 13.20316 | 77.69666 | 3019 ft | 3 kts | 358° |
| 2026-04-24 10:11 | 13.20297 | 77.69667 | 3017 ft | 3 kts | 353° |
| 2026-04-24 10:11 | 13.20282 | 77.69670 | 3022 ft | 1 kts | 330° |
| 2026-04-24 10:11 | 13.20276 | 77.69676 | 3019 ft | 1 kts | 297° |
| 2026-04-24 10:11 | 13.20273 | 77.69684 | 3021 ft | 1 kts | 277° |
| 2026-04-24 10:12 | 13.20272 | 77.69692 | 3021 ft | 1 kts | 271° |
| 2026-04-24 10:12 | 13.20272 | 77.69693 | 3021 ft | 0 kts | 271° |
| 2026-04-24 10:14 | 13.20272 | 77.69692 | 3021 ft | 0 kts | 271° |
| 2026-04-24 10:14 | 13.20273 | 77.69682 | 3021 ft | 3 kts | 271° |
| 2026-04-24 10:14 | 13.20273 | 77.69653 | 3015 ft | 6 kts | 271° |
| 2026-04-24 10:14 | 13.20274 | 77.69603 | 3014 ft | 8 kts | 270° |
| 2026-04-24 10:15 | 13.20274 | 77.69534 | 3014 ft | 11 kts | 270° |
| 2026-04-24 10:15 | 13.20274 | 77.69446 | 3014 ft | 14 kts | 272° |
| 2026-04-24 10:15 | 13.20281 | 77.69351 | 3014 ft | 10 kts | 294° |
| 2026-04-24 10:15 | 13.20313 | 77.69332 | 3013 ft | 4 kts | 360° |
| 2026-04-24 10:16 | 13.20348 | 77.69331 | 3013 ft | 7 kts | 360° |
| 2026-04-24 10:16 | 13.20406 | 77.69331 | 3013 ft | 10 kts | 0° |
| 2026-04-24 10:16 | 13.20488 | 77.69333 | 3013 ft | 14 kts | 0° |
| 2026-04-24 10:16 | 13.20530 | 77.69322 | 3013 ft | 2 kts | 319° |
| 2026-04-24 10:17 | 13.20544 | 77.69294 | 3013 ft | 6 kts | 272° |
| 2026-04-24 10:17 | 13.20547 | 77.69220 | 3018 ft | 11 kts | 297° |
| 2026-04-24 10:17 | 13.20610 | 77.69204 | 3013 ft | 14 kts | 4° |
| 2026-04-24 10:17 | 13.20684 | 77.69207 | 3014 ft | 14 kts | 15° |
| 2026-04-24 10:18 | 13.20716 | 77.69258 | 3014 ft | 7 kts | 94° |
| 2026-04-24 10:18 | 13.20715 | 77.69341 | 3014 ft | 21 kts | 90° |
| 2026-04-24 10:18 | 13.20711 | 77.69701 | 3014 ft | 79 kts | 90° |
| 2026-04-24 10:18 | 13.20707 | 77.70151 | 3014 ft | 111 kts | 91° |
| 2026-04-24 10:19 | 13.20698 | 77.71090 | 3014 ft | 151 kts | 91° |
| 2026-04-24 10:19 | 13.20681 | 77.72227 | 3271 ft | 162 kts | 93° |
| 2026-04-24 10:19 | 13.20669 | 77.73396 | 3729 ft | 168 kts | 84° |
| 2026-04-24 10:19 | 13.20753 | 77.74589 | 4212 ft | 171 kts | 98° |
| 2026-04-24 10:20 | 13.20482 | 77.75817 | 4602 ft | 185 kts | 103° |
| 2026-04-24 10:20 | 13.20199 | 77.77183 | 4969 ft | 206 kts | 101° |
| 2026-04-24 10:20 | 13.19906 | 77.78693 | 5316 ft | 227 kts | 101° |
| 2026-04-24 10:20 | 13.19601 | 77.80333 | 5803 ft | 238 kts | 100° |
| 2026-04-24 10:21 | 13.19296 | 77.82015 | 6427 ft | 243 kts | 100° |
| 2026-04-24 10:21 | 13.18991 | 77.83726 | 7132 ft | 245 kts | 100° |
| 2026-04-24 10:21 | 13.18685 | 77.85462 | 7869 ft | 247 kts | 99° |
| 2026-04-24 10:21 | 13.18381 | 77.87204 | 8601 ft | 252 kts | 99° |
| 2026-04-24 10:22 | 13.18068 | 77.88998 | 9277 ft | 258 kts | 98° |
| 2026-04-24 10:22 | 13.17751 | 77.90822 | 10039 ft | 260 kts | 98° |
| 2026-04-24 10:22 | 13.17431 | 77.92662 | 10772 ft | 263 kts | 98° |
| 2026-04-24 10:22 | 13.17107 | 77.94525 | 11542 ft | 267 kts | 98° |
| 2026-04-24 10:23 | 13.16775 | 77.96437 | 12123 ft | 281 kts | 98° |
| 2026-04-24 10:23 | 13.16420 | 77.98483 | 12512 ft | 301 kts | 98° |
| 2026-04-24 10:23 | 13.16040 | 78.00667 | 12851 ft | 321 kts | 98° |
| 2026-04-24 10:23 | 13.15636 | 78.02991 | 13179 ft | 340 kts | 98° |
| 2026-04-24 10:24 | 13.15212 | 78.05425 | 13645 ft | 352 kts | 98° |
| 2026-04-24 10:24 | 13.14778 | 78.07910 | 14310 ft | 356 kts | 98° |
| 2026-04-24 10:24 | 13.14338 | 78.10431 | 14915 ft | 362 kts | 99° |
| 2026-04-24 10:24 | 13.13893 | 78.12978 | 15610 ft | 365 kts | 99° |
| 2026-04-24 10:25 | 13.13443 | 78.15559 | 16235 ft | 368 kts | 99° |
| 2026-04-24 10:25 | 13.12995 | 78.18119 | 16903 ft | 371 kts | 100° |
| 2026-04-24 10:25 | 13.12535 | 78.20744 | 17452 ft | 377 kts | 100° |
| 2026-04-24 10:25 | 13.12068 | 78.23412 | 17968 ft | 383 kts | 101° |
| 2026-04-24 10:26 | 13.11596 | 78.26103 | 18514 ft | 385 kts | 101° |
| 2026-04-24 10:26 | 13.11119 | 78.28831 | 18767 ft | 390 kts | 101° |
| 2026-04-24 10:26 | 13.10635 | 78.31594 | 18847 ft | 399 kts | 101° |
| 2026-04-24 10:26 | 13.10135 | 78.34440 | 18850 ft | 412 kts | 102° |
| 2026-04-24 10:27 | 13.09620 | 78.37378 | 18850 ft | 424 kts | 101° |
| 2026-04-24 10:27 | 13.09152 | 78.40042 | 18837 ft | 432 kts | 101° |
| 2026-04-24 10:27 | 13.08859 | 78.41712 | 18830 ft | 437 kts | 102° |
| 2026-04-24 10:27 | 13.08455 | 78.44008 | 18834 ft | 441 kts | 101° |
| 2026-04-24 10:28 | 13.07909 | 78.47111 | 18846 ft | 444 kts | 101° |
| 2026-04-24 10:28 | 13.07359 | 78.50236 | 18858 ft | 445 kts | 101° |
| 2026-04-24 10:28 | 13.06808 | 78.53357 | 18862 ft | 445 kts | 101° |
| 2026-04-24 10:28 | 13.06258 | 78.56478 | 18864 ft | 446 kts | 101° |
| 2026-04-24 10:29 | 13.05704 | 78.59613 | 18868 ft | 445 kts | 101° |
| 2026-04-24 10:29 | 13.05153 | 78.62733 | 18865 ft | 445 kts | 101° |
| 2026-04-24 10:29 | 13.04601 | 78.65857 | 18866 ft | 446 kts | 101° |
| 2026-04-24 10:29 | 13.04048 | 78.68980 | 18849 ft | 446 kts | 101° |
| 2026-04-24 10:30 | 13.03494 | 78.72108 | 18847 ft | 445 kts | 102° |
| 2026-04-24 10:30 | 13.02952 | 78.75171 | 18847 ft | 446 kts | 101° |
| 2026-04-24 10:30 | 13.02398 | 78.78292 | 18851 ft | 445 kts | 102° |
| 2026-04-24 10:30 | 13.01844 | 78.81417 | 18845 ft | 445 kts | 101° |
| 2026-04-24 10:31 | 13.01291 | 78.84533 | 18828 ft | 440 kts | 102° |
| 2026-04-24 10:31 | 13.00754 | 78.87553 | 18252 ft | 432 kts | 101° |
| 2026-04-24 10:31 | 13.00235 | 78.90480 | 18124 ft | 397 kts | 101° |
| 2026-04-24 10:31 | 12.99700 | 78.93486 | 14861 ft | 469 kts | 99° |
| 2026-04-24 10:32 | 12.99160 | 78.96498 | 16452 ft | 404 kts | 100° |
| 2026-04-24 10:32 | 12.98654 | 78.99339 | 16503 ft | 406 kts | 100° |
| 2026-04-24 10:32 | 12.98155 | 79.02145 | 16472 ft | 389 kts | 100° |
| 2026-04-24 10:32 | 12.97675 | 79.04839 | 16213 ft | 380 kts | 99° |
| 2026-04-24 10:33 | 12.97205 | 79.07467 | 15996 ft | 370 kts | 99° |
| 2026-04-24 10:33 | 12.96821 | 79.10038 | 15775 ft | 361 kts | 92° |
| 2026-04-24 10:33 | 12.96711 | 79.12570 | 15461 ft | 355 kts | 92° |
| 2026-04-24 10:33 | 12.96579 | 79.15098 | 14995 ft | 354 kts | 92° |
| 2026-04-24 10:34 | 12.96434 | 79.17621 | 14550 ft | 354 kts | 92° |
| 2026-04-24 10:34 | 12.96283 | 79.20107 | 14117 ft | 344 kts | 91° |
| 2026-04-24 10:34 | 12.96133 | 79.22512 | 13694 ft | 332 kts | 91° |
| 2026-04-24 10:34 | 12.95985 | 79.24839 | 13228 ft | 322 kts | 91° |
| 2026-04-24 10:35 | 12.95841 | 79.27099 | 12752 ft | 313 kts | 91° |
| 2026-04-24 10:35 | 12.95701 | 79.29300 | 12275 ft | 305 kts | 91° |
| 2026-04-24 10:35 | 12.95564 | 79.31441 | 11840 ft | 297 kts | 91° |
| 2026-04-24 10:35 | 12.95431 | 79.33521 | 11433 ft | 289 kts | 92° |
| 2026-04-24 10:36 | 12.95301 | 79.35557 | 11022 ft | 282 kts | 92° |
| 2026-04-24 10:36 | 12.95174 | 79.37544 | 10627 ft | 277 kts | 92° |
| 2026-04-24 10:36 | 12.95048 | 79.39502 | 10231 ft | 274 kts | 92° |
| 2026-04-24 10:36 | 12.94924 | 79.41440 | 9864 ft | 271 kts | 92° |
| 2026-04-24 10:37 | 12.94800 | 79.43361 | 9535 ft | 269 kts | 92° |
| 2026-04-24 10:37 | 12.94677 | 79.45268 | 9181 ft | 267 kts | 92° |
| 2026-04-24 10:37 | 12.94555 | 79.47166 | 8833 ft | 266 kts | 93° |
| 2026-04-24 10:37 | 12.94432 | 79.49068 | 8498 ft | 268 kts | 93° |
| 2026-04-24 10:38 | 12.94309 | 79.50977 | 8150 ft | 269 kts | 93° |
| 2026-04-24 10:38 | 12.94185 | 79.52895 | 7805 ft | 268 kts | 94° |
| 2026-04-24 10:38 | 12.94063 | 79.54779 | 7450 ft | 261 kts | 94° |
| 2026-04-24 10:38 | 12.93943 | 79.56630 | 7124 ft | 261 kts | 94° |
| 2026-04-24 10:39 | 12.93822 | 79.58485 | 6797 ft | 262 kts | 94° |
| 2026-04-24 10:39 | 12.93701 | 79.60354 | 6467 ft | 263 kts | 94° |
| 2026-04-24 10:39 | 12.93579 | 79.62227 | 6134 ft | 265 kts | 95° |
| 2026-04-24 10:39 | 12.93457 | 79.64107 | 5779 ft | 263 kts | 95° |
| 2026-04-24 10:40 | 12.93336 | 79.65955 | 5417 ft | 256 kts | 95° |
| 2026-04-24 10:40 | 12.93219 | 79.67750 | 5072 ft | 250 kts | 95° |
| 2026-04-24 10:40 | 12.93105 | 79.69506 | 4767 ft | 243 kts | 96° |
| 2026-04-24 10:40 | 12.92994 | 79.71202 | 4532 ft | 233 kts | 96° |
| 2026-04-24 10:41 | 12.92888 | 79.72825 | 4325 ft | 226 kts | 95° |
| 2026-04-24 10:41 | 12.92784 | 79.74423 | 4098 ft | 224 kts | 95° |
| 2026-04-24 10:41 | 12.92680 | 79.76015 | 3875 ft | 224 kts | 96° |
| 2026-04-24 10:41 | 12.92576 | 79.77595 | 3643 ft | 222 kts | 96° |
| 2026-04-24 10:42 | 12.92472 | 79.79168 | 3427 ft | 220 kts | 96° |
| 2026-04-24 10:42 | 12.92368 | 79.80740 | 3191 ft | 222 kts | 96° |
| 2026-04-24 10:42 | 12.92263 | 79.82325 | 2995 ft | 223 kts | 95° |
| 2026-04-24 10:42 | 12.92159 | 79.83913 | 2768 ft | 222 kts | 95° |
| 2026-04-24 10:43 | 12.92052 | 79.85487 | 2543 ft | 221 kts | 96° |
| 2026-04-24 10:43 | 12.91952 | 79.87043 | 2313 ft | 218 kts | 96° |
| 2026-04-24 10:43 | 12.91851 | 79.88582 | 2069 ft | 220 kts | 95° |
| 2026-04-24 10:43 | 12.91750 | 79.90123 | 2009 ft | 210 kts | 96° |
| 2026-04-24 10:44 | 12.91655 | 79.91563 | 1980 ft | 198 kts | 97° |
| 2026-04-24 10:44 | 12.91561 | 79.92950 | 1964 ft | 191 kts | 95° |
| 2026-04-24 10:44 | 12.91472 | 79.94290 | 1970 ft | 186 kts | 96° |
| 2026-04-24 10:44 | 12.91399 | 79.95606 | 1998 ft | 187 kts | 92° |
| 2026-04-24 10:45 | 12.91598 | 79.96924 | 2005 ft | 188 kts | 77° |
| 2026-04-24 10:45 | 12.92030 | 79.98188 | 2030 ft | 188 kts | 72° |
| 2026-04-24 10:45 | 12.92506 | 79.99441 | 2040 ft | 188 kts | 73° |
| 2026-04-24 10:45 | 12.92961 | 80.00651 | 2000 ft | 175 kts | 72° |
| 2026-04-24 10:46 | 12.93396 | 80.01819 | 1910 ft | 170 kts | 71° |
| 2026-04-24 10:46 | 12.93811 | 80.02931 | 1933 ft | 170 kts | 73° |
| 2026-04-24 10:46 | 12.94232 | 80.04055 | 1956 ft | 169 kts | 70° |
| 2026-04-24 10:46 | 12.94641 | 80.05184 | 1947 ft | 170 kts | 72° |
| 2026-04-24 10:47 | 12.95070 | 80.06309 | 1775 ft | 163 kts | 70° |
| 2026-04-24 10:47 | 12.95467 | 80.07355 | 1598 ft | 154 kts | 72° |
| 2026-04-24 10:47 | 12.95842 | 80.08363 | 1428 ft | 151 kts | 73° |
| 2026-04-24 10:47 | 12.96217 | 80.09368 | 1210 ft | 151 kts | 71° |
| 2026-04-24 10:48 | 12.96595 | 80.10386 | 988 ft | 152 kts | 73° |
| 2026-04-24 10:48 | 12.96970 | 80.11389 | 893 ft | 153 kts | 75° |
| 2026-04-24 10:48 | 12.97346 | 80.12411 | 556 ft | 150 kts | 74° |
| 2026-04-24 10:48 | 12.97754 | 80.13410 | 400 ft | 156 kts | 68° |
| 2026-04-24 10:49 | 12.98110 | 80.14464 | 285 ft | 158 kts | 76° |
| 2026-04-24 10:49 | 12.98502 | 80.15513 | 92 ft | 157 kts | 71° |
| 2026-04-24 10:49 | 12.98867 | 80.16488 | 57 ft | 128 kts | 76° |
| 2026-04-24 10:49 | 12.99093 | 80.17103 | 53 ft | 62 kts | 69° |
| 2026-04-24 10:50 | 12.99241 | 80.17496 | 56 ft | 56 kts | 67° |
| 2026-04-24 10:50 | 12.99286 | 80.17643 | 59 ft | 8 kts | 107° |
| 2026-04-24 10:50 | 12.99256 | 80.17667 | 59 ft | 6 kts | 159° |
| 2026-04-24 10:50 | 12.99189 | 80.17694 | 56 ft | 14 kts | 159° |
| 2026-04-24 10:51 | 12.99122 | 80.17671 | 55 ft | 10 kts | 245° |
| 2026-04-24 10:51 | 12.99094 | 80.17597 | 57 ft | 12 kts | 249° |
| 2026-04-24 10:51 | 12.99059 | 80.17506 | 55 ft | 15 kts | 249° |
| 2026-04-24 10:51 | 12.99019 | 80.17398 | 53 ft | 18 kts | 249° |
| 2026-04-24 10:52 | 12.98972 | 80.17273 | 53 ft | 20 kts | 249° |
| 2026-04-24 10:52 | 12.98911 | 80.17145 | 54 ft | 21 kts | 249° |
| 2026-04-24 10:52 | 12.98856 | 80.17001 | 52 ft | 23 kts | 249° |
| 2026-04-24 10:52 | 12.98796 | 80.16842 | 54 ft | 25 kts | 248° |
| 2026-04-24 10:53 | 12.98747 | 80.16731 | 52 ft | 9 kts | 218° |
| 2026-04-24 10:53 | 12.98712 | 80.16733 | 53 ft | 6 kts | 156° |
| 2026-04-24 10:53 | 12.98656 | 80.16756 | 53 ft | 13 kts | 159° |
| 2026-04-24 10:53 | 12.98594 | 80.16762 | 55 ft | 8 kts | 219° |
| 2026-04-24 10:54 | 12.98576 | 80.16728 | 54 ft | 5 kts | 246° |
| 2026-04-24 10:54 | 12.98573 | 80.16711 | 54 ft | 1 kts | 283° |
| 2026-04-24 10:54 | 12.98580 | 80.16701 | 58 ft | 4 kts | 316° |
| 2026-04-24 10:54 | 12.98620 | 80.16685 | 52 ft | 3 kts | 340° |
| 2026-04-24 10:55 | 12.98625 | 80.16683 | 54 ft | 0 kts | 340° |